Time;durP1;ratioP1;P1;durP2;ratioP2;P2;SDS_P1;SDS_P2;PMS_P1;PMS_P2;Temp;Humidity;BMP_temperature;BMP_pressure;BME280_temperature;BME280_humidity;BME280_pressure;Samples;Min_cycle;Max_cycle;Signal;HPM_P1;HPM_P2
2021/01/28 00:00:40;;;;;;;42.00;16.13;;;;;;;0.18;52.08;100882.94;4917144;29;20024;-96
2021/01/28 00:03:09;;;;;;;33.08;16.92;;;;;;;0.34;51.82;100885.56;4930990;29;20063;-96
2021/01/28 00:05:42;;;;;;;38.92;19.52;;;;;;;0.31;51.46;100871.44;4916173;29;20085;-96
2021/01/28 00:08:09;;;;;;;37.38;16.70;;;;;;;0.51;51.85;100889.03;4924614;29;20100;-96
2021/01/28 00:10:37;;;;;;;31.50;16.25;;;;;;;-0.71;52.72;100703.41;4917965;29;20477;-96
2021/01/28 00:13:06;;;;;;;41.15;18.25;;;;;;;0.49;53.03;100882.06;4887092;29;20032;-96
2021/01/28 00:15:35;;;;;;;44.03;20.45;;;;;;;0.37;55.76;100936.94;4887863;29;20036;-96
2021/01/28 00:18:04;;;;;;;32.65;18.90;;;;;;;-0.66;57.49;100779.00;4903995;29;20029;-96
2021/01/28 00:20:41;;;;;;;44.05;21.23;;;;;;;0.28;61.81;100978.88;4905525;29;20036;-96
2021/01/28 00:23:09;;;;;;;38.78;19.48;;;;;;;-0.18;67.27;100982.25;4915261;29;20032;-96
2021/01/28 00:25:40;;;;;;;38.67;21.42;;;;;;;-0.27;72.30;100995.03;4906766;29;20120;-96
2021/01/28 00:28:19;;;;;;;49.97;24.73;;;;;;;-0.76;76.18;100996.75;4905130;29;20028;-96
2021/01/28 00:30:56;;;;;;;45.67;23.90;;;;;;;-1.10;79.97;100962.38;4900469;29;21071;-96
2021/01/28 00:49:26;;;;;;;31.73;19.00;;;;;;;-0.92;95.77;100983.97;4973638;23;20075;-95
2021/01/28 00:52:01;;;;;;;38.58;24.02;;;;;;;-1.55;96.15;100837.69;4952502;29;20036;-94
2021/01/28 00:54:28;;;;;;;41.50;24.00;;;;;;;-2.52;96.25;100691.66;4973744;28;20019;-95
2021/01/28 00:56:54;;;;;;;41.40;24.02;;;;;;;-0.94;97.16;100957.97;4945547;28;20058;-94
2021/01/28 00:59:21;;;;;;;33.47;19.17;;;;;;;-1.73;96.85;100810.69;4940265;29;20008;-93
2021/01/28 01:01:50;;;;;;;44.22;22.38;;;;;;;-0.58;97.19;100990.28;4967771;29;20012;-96
2021/01/28 01:10:39;;;;;;;96.80;49.83;;;;;;;-0.36;96.59;100963.41;5025365;23;20074;-94
2021/01/28 01:13:08;;;;;;;85.40;46.13;;;;;;;-0.75;94.55;100877.94;4942208;29;20079;-92
2021/01/28 01:15:36;;;;;;;81.22;41.97;;;;;;;-0.18;95.12;100922.38;4914030;29;20351;-96
2021/01/28 01:18:05;;;;;;;81.53;43.40;;;;;;;-0.54;93.89;100857.53;4921676;29;20032;-96
2021/01/28 01:20:33;;;;;;;71.82;39.58;;;;;;;-1.30;91.67;100726.34;4920335;29;20111;-96
2021/01/28 01:23:00;;;;;;;69.35;35.40;;;;;;;0.37;90.07;101018.66;4940609;29;20122;-96
2021/01/28 01:28:39;;;;;;;45.00;24.75;;;;;;;0.48;86.62;101035.66;5278963;23;20065;-95
2021/01/28 01:31:25;;;;;;;44.70;25.52;;;;;;;0.40;86.24;101012.88;4890085;29;20029;-95
2021/01/28 01:33:52;;;;;;;29.15;16.50;;;;;;;-0.68;82.97;100851.75;4891790;29;20041;-94
2021/01/28 01:46:12;;;;;;;38.50;19.52;;;;;;;-0.16;82.06;100942.09;4920686;29;20050;-95
2021/01/28 02:08:22;;;;;;;36.55;15.52;;;;;;;-0.12;79.79;100964.38;4942602;29;20051;-96
2021/01/28 02:11:13;;;;;;;39.20;15.38;;;;;;;-0.16;79.82;100939.38;4929110;28;20032;-96
2021/01/28 07:37:48;;;;;;;16.52;5.00;;;;;;;-3.46;37.82;101496.50;5442055;23;20053;-83
2021/01/28 07:43:11;;;;;;;10.02;4.35;;;;;;;-7.02;38.42;100991.69;5483936;23;20036;-86
2021/01/28 07:58:58;;;;;;;16.30;5.35;;;;;;;-5.43;43.23;101274.84;5413827;23;20053;-84
2021/01/28 08:01:36;;;;;;;18.85;5.53;;;;;;;-3.78;44.09;101547.13;4900423;29;20052;-86
2021/01/28 08:04:08;;;;;;;10.40;4.65;;;;;;;-6.71;46.44;101111.25;4883521;29;20045;-83
2021/01/28 08:07:23;;;;;;;25.65;6.60;;;;;;;-4.24;48.38;101557.41;4901127;29;20040;-85
2021/01/28 08:10:04;;;;;;;14.98;6.13;;;;;;;-5.75;47.37;101362.06;4894827;29;20049;-83
2021/01/28 08:12:44;;;;;;;12.57;5.63;;;;;;;-5.84;46.34;101220.75;4883588;29;20036;-84
2021/01/28 08:15:20;;;;;;;11.93;5.18;;;;;;;-7.39;46.46;101048.56;4871379;29;20028;-83
2021/01/28 08:20:32;;;;;;;23.63;6.55;;;;;;;-4.18;47.21;101599.28;5332364;23;20060;-82
2021/01/28 08:23:39;;;;;;;14.95;5.60;;;;;;;-4.67;47.06;101511.47;4905433;29;20098;-82
2021/01/28 08:26:38;;;;;;;13.25;5.40;;;;;;;-5.74;47.85;101369.19;4905193;29;20117;-83
2021/01/28 08:29:40;;;;;;;12.93;4.55;;;;;;;-4.37;48.16;101573.84;5596478;23;20036;-85
2021/01/28 08:33:02;;;;;;;17.73;8.50;;;;;;;-4.49;47.49;101581.16;4906485;29;20120;-84
2021/01/28 08:36:05;;;;;;;11.63;5.90;;;;;;;-4.42;47.33;101603.09;4901419;29;20021;-84
2021/01/28 08:39:16;;;;;;;15.32;5.13;;;;;;;-4.44;46.80;101629.44;4904748;29;20032;-85
2021/01/28 08:42:35;;;;;;;7.28;4.07;;;;;;;-5.54;42.99;101423.31;4842754;29;20041;-85
2021/01/28 08:45:23;;;;;;;11.38;3.95;;;;;;;-6.08;38.75;101459.13;4866552;29;20049;-84
2021/01/28 08:54:25;;;;;;;9.93;3.08;;;;;;;-6.06;38.07;101467.94;4925551;29;20044;-85
2021/01/28 08:59:50;;;;;;;12.52;4.25;;;;;;;-6.78;40.18;101337.97;5447855;23;20036;-82
2021/01/28 09:02:54;;;;;;;16.30;5.38;;;;;;;-5.93;41.43;101440.81;4887253;29;20041;-84
2021/01/28 09:05:38;;;;;;;12.88;4.53;;;;;;;-7.75;41.98;101201.97;4934560;23;20087;-85
2021/01/28 09:08:44;;;;;;;10.48;3.47;;;;;;;-6.35;40.55;101424.47;4813377;29;20051;-83
2021/01/28 09:11:36;;;;;;;6.32;3.92;;;;;;;-6.65;36.53;101363.94;4879680;29;20066;-83
2021/01/28 09:14:33;;;;;;;10.85;4.03;;;;;;;-4.93;38.35;101621.72;4849144;29;20053;-84
2021/01/28 09:17:21;;;;;;;8.07;3.47;;;;;;;-4.96;37.75;101687.66;4871067;29;20033;-85
2021/01/28 09:20:04;;;;;;;6.82;3.33;;;;;;;-5.17;33.61;101746.09;4893411;29;20103;-84
2021/01/28 09:22:38;;;;;;;11.52;3.03;;;;;;;-6.16;33.32;101449.94;4894415;29;20040;-83
2021/01/28 09:25:31;;;;;;;4.90;2.10;;;;;;;-5.82;34.70;101565.88;4885000;29;20040;-84
2021/01/28 09:28:07;;;;;;;7.68;3.00;;;;;;;-5.13;34.13;101675.53;4859844;29;20065;-82
2021/01/28 09:30:50;;;;;;;7.10;2.92;;;;;;;-5.07;35.08;101622.00;4871834;29;20072;-81
2021/01/28 09:33:41;;;;;;;10.90;2.78;;;;;;;-7.81;36.24;101239.25;4869795;29;20491;-82
2021/01/28 09:36:14;;;;;;;14.88;3.60;;;;;;;-5.22;38.10;101606.06;4876911;29;20040;-83
2021/01/28 09:38:56;;;;;;;20.25;3.28;;;;;;;-6.12;38.04;101467.59;4898321;29;20034;-83
2021/01/28 09:41:34;;;;;;;4.00;2.88;;;;;;;-7.04;39.32;101315.81;4878602;29;20051;-83
2021/01/28 09:44:01;;;;;;;16.40;5.22;;;;;;;-5.17;41.74;101641.63;4880256;29;20035;-83
2021/01/28 09:47:21;;;;;;;14.68;4.40;;;;;;;-5.30;44.59;101640.94;4870470;29;20114;-84
2021/01/28 11:01:43;;;;;;;18.80;7.13;;;;;;;-9.37;47.25;101446.28;5156144;23;20067;-85
2021/01/28 11:04:33;;;;;;;14.38;4.78;;;;;;;-10.03;47.41;101327.25;4867184;29;20037;-83
2021/01/28 11:10:10;;;;;;;23.02;6.05;;;;;;;-6.87;46.99;101843.16;5026646;23;20033;-83
2021/01/28 11:16:28;;;;;;;9.95;5.60;;;;;;;-8.50;46.10;101628.38;5154796;23;20194;-85
2021/01/28 11:19:59;;;;;;;11.18;3.78;;;;;;;-6.99;46.59;101837.75;4899755;29;20120;-87
2021/01/28 11:23:43;;;;;;;6.93;4.53;;;;;;;-10.15;44.96;101338.78;4830093;29;20079;-86
2021/01/28 12:12:48;;;;;;;11.18;5.38;;;;;;;-7.32;44.13;101947.66;5435653;23;20060;-85
2021/01/28 12:15:31;;;;;;;7.28;5.28;;;;;;;-8.79;45.07;101746.63;4914650;29;20033;-84
2021/01/28 12:21:11;;;;;;;11.05;5.28;;;;;;;-9.30;45.05;101651.44;5131696;23;20075;-84
2021/01/28 12:23:50;;;;;;;13.30;5.43;;;;;;;-10.46;45.47;101506.78;4911481;29;20052;-85
2021/01/28 12:26:44;;;;;;;14.43;3.53;;;;;;;-9.75;45.58;101530.94;4906312;29;20021;-84
2021/01/28 12:29:35;;;;;;;15.90;4.78;;;;;;;-7.27;44.11;101977.78;4905465;29;20025;-87
2021/01/28 12:32:54;;;;;;;15.63;5.82;;;;;;;-8.76;44.06;101751.78;4920810;29;20021;-85
2021/01/28 12:38:24;;;;;;;12.52;3.90;;;;;;;-7.76;42.36;101960.38;5355183;23;20060;-85
2021/01/28 12:41:04;;;;;;;8.65;3.22;;;;;;;-7.49;41.12;102005.28;4916128;29;20044;-85
2021/01/28 12:44:44;;;;;;;9.15;4.28;;;;;;;-7.60;40.91;101944.94;4857283;29;20029;-84
2021/01/28 12:48:09;;;;;;;4.57;2.92;;;;;;;-7.71;39.66;101947.50;4899569;29;20056;-87
2021/01/28 12:57:47;;;;;;;8.10;4.13;;;;;;;-7.77;38.55;101972.09;4896864;29;20047;-85
2021/01/28 13:00:42;;;;;;;19.08;5.38;;;;;;;-8.61;37.91;101886.91;4881296;29;20026;-84
2021/01/28 13:04:05;;;;;;;13.95;4.90;;;;;;;-10.65;37.74;101558.75;4847439;29;20025;-84
2021/01/28 13:09:45;;;;;;;16.45;4.53;;;;;;;-11.10;38.02;101458.88;5306367;23;20037;-85
2021/01/28 13:14:50;;;;;;;6.30;3.03;;;;;;;-9.81;36.10;101654.63;5115034;23;20053;-83
2021/01/28 13:17:41;;;;;;;5.10;3.25;;;;;;;-10.82;37.48;101542.84;4854616;29;20033;-83
2021/01/28 13:20:26;;;;;;;8.23;3.13;;;;;;;-7.99;38.33;101994.97;4898821;29;20435;-84
2021/01/28 13:23:27;;;;;;;4.03;2.83;;;;;;;-10.10;36.07;101674.16;4902086;29;20073;-84
2021/01/28 13:25:57;;;;;;;11.00;4.60;;;;;;;-8.23;36.25;102000.09;4876871;29;20089;-84
2021/01/28 13:28:28;;;;;;;;;;;;;;;-8.25;36.51;102006.41;4886846;29;20060;-83
2021/01/28 13:31:24;;;;;;;14.30;3.50;;;;;;;-8.04;37.38;102006.03;4901750;29;19923;-84
2021/01/28 13:34:27;;;;;;;7.68;3.33;;;;;;;-11.10;37.47;101553.34;4905235;29;20053;-84
2021/01/28 13:37:06;;;;;;;10.35;3.75;;;;;;;-10.29;34.21;101701.19;4885783;29;20108;-84
2021/01/28 13:40:27;;;;;;;8.90;3.63;;;;;;;-12.07;34.33;101472.38;4880109;29;20036;-84
2021/01/28 13:43:14;;;;;;;6.03;3.05;;;;;;;-10.67;35.07;101665.03;4883731;29;20041;-84
2021/01/28 13:46:05;;;;;;;8.85;3.25;;;;;;;-8.46;35.27;102043.53;4856282;29;20074;-86
2021/01/28 13:51:41;;;;;;;4.60;2.55;;;;;;;-9.79;36.31;101872.47;4901321;29;20048;-84
2021/01/28 13:54:31;;;;;;;14.18;3.35;;;;;;;-8.96;36.24;102041.13;4919872;29;20032;-84
2021/01/28 13:57:19;;;;;;;5.18;2.53;;;;;;;-10.68;36.73;101748.97;4869845;29;20048;-84
2021/01/28 13:59:57;;;;;;;8.55;3.03;;;;;;;-8.74;37.69;102098.06;4886241;29;20085;-83
2021/01/28 14:02:47;;;;;;;4.35;3.05;;;;;;;-12.00;38.31;101588.56;4878628;29;20019;-83
2021/01/28 14:05:52;;;;;;;9.20;4.22;;;;;;;-9.08;38.68;101908.50;4874946;29;20073;-85
2021/01/28 14:08:49;;;;;;;6.70;4.43;;;;;;;-9.69;38.34;101940.69;4903023;29;20066;-84
2021/01/28 14:11:52;;;;;;;8.80;4.47;;;;;;;-11.04;39.40;101707.25;4871118;29;20038;-84
2021/01/28 14:17:39;;;;;;;10.60;4.47;;;;;;;-8.86;39.83;102099.66;4896787;29;20882;-83
2021/01/28 14:20:21;;;;;;;6.28;3.25;;;;;;;-10.03;39.63;101922.03;4900184;29;20048;-84
2021/01/28 14:23:13;;;;;;;13.00;4.45;;;;;;;-9.53;40.66;102042.56;4891103;29;20037;-84
2021/01/28 14:26:05;;;;;;;11.25;5.28;;;;;;;-9.05;40.17;102149.00;4904727;29;20054;-83
2021/01/28 14:29:10;;;;;;;8.05;3.63;;;;;;;-9.12;41.21;102134.19;4885735;29;20038;-84
2021/01/28 14:32:02;;;;;;;10.73;4.68;;;;;;;-12.10;41.92;101627.41;4865568;29;20108;-84
2021/01/28 14:35:02;;;;;;;17.08;6.00;;;;;;;-9.20;42.33;102199.03;4903389;29;20077;-83
2021/01/28 14:37:55;;;;;;;7.85;4.38;;;;;;;-10.62;42.40;101890.50;4903569;29;20056;-83
2021/01/28 14:40:37;;;;;;;10.45;3.83;;;;;;;-9.33;43.65;102147.88;4857530;29;20034;-84
2021/01/28 14:43:24;;;;;;;13.50;4.25;;;;;;;-9.14;43.03;102133.44;4901002;29;20088;-84
2021/01/28 14:46:34;;;;;;;9.18;4.95;;;;;;;-9.15;42.42;102135.22;4888712;29;20040;-85
2021/01/28 14:49:33;;;;;;;8.23;4.20;;;;;;;-11.45;42.95;101811.03;4903889;29;20057;-84
2021/01/28 14:52:25;;;;;;;12.70;7.13;;;;;;;-10.89;43.96;101912.41;4903683;29;20110;-85
2021/01/28 14:55:14;;;;;;;8.70;4.88;;;;;;;-11.59;43.36;101822.41;4874105;29;20029;-84
2021/01/28 14:57:49;;;;;;;9.98;5.25;;;;;;;-9.40;43.66;102150.03;4889027;29;20029;-84
2021/01/28 15:00:55;;;;;;;10.82;5.90;;;;;;;-12.44;43.71;101669.22;4915015;29;20015;-85
2021/01/28 15:03:53;;;;;;;10.18;2.90;;;;;;;-9.51;45.23;102086.25;4900001;29;20067;-85
2021/01/28 15:06:22;;;;;;;18.55;5.80;;;;;;;-9.46;45.15;102120.84;4884624;29;20073;-84
2021/01/28 15:09:00;;;;;;;11.95;5.00;;;;;;;-8.89;44.61;102162.44;4902826;29;20041;-85
2021/01/28 15:11:50;;;;;;;16.50;5.60;;;;;;;-10.28;44.64;102000.22;4881912;29;20033;-84
2021/01/28 15:14:34;;;;;;;17.60;4.35;;;;;;;-12.99;41.66;101566.97;4887947;29;20044;-85
2021/01/28 15:17:12;;;;;;;12.27;4.97;;;;;;;-11.51;41.18;101830.06;4881236;29;20067;-84
2021/01/28 15:19:43;;;;;;;8.57;4.57;;;;;;;-9.23;40.96;102232.25;4894741;29;20037;-83
2021/01/28 15:22:35;;;;;;;7.25;4.13;;;;;;;-11.58;41.78;101915.00;4884858;29;20037;-85
2021/01/28 15:25:06;;;;;;;9.15;4.05;;;;;;;-12.29;39.75;101720.94;4882556;29;20092;-84
2021/01/28 15:27:47;;;;;;;11.23;5.35;;;;;;;-9.32;39.00;102184.47;4886228;29;20024;-85
2021/01/28 15:30:29;;;;;;;10.75;4.10;;;;;;;-9.26;38.71;102204.72;4900174;29;20036;-85
2021/01/28 15:33:07;;;;;;;15.13;4.50;;;;;;;-9.12;38.17;102212.00;4871618;29;20073;-84
2021/01/28 15:35:41;;;;;;;18.33;3.63;;;;;;;-11.26;39.13;101874.22;4899492;29;20082;-84
2021/01/28 15:38:32;;;;;;;8.88;3.85;;;;;;;-12.52;37.70;101705.16;4886348;29;20039;-86
2021/01/28 15:41:14;;;;;;;8.68;4.13;;;;;;;-11.63;38.89;101852.06;4875768;29;20021;-84
2021/01/28 15:44:17;;;;;;;8.90;4.40;;;;;;;-11.53;39.15;101850.66;4882797;29;20033;-84
2021/01/28 15:46:54;;;;;;;7.25;3.75;;;;;;;-9.49;39.67;102247.09;4882422;29;20053;-84
2021/01/28 15:49:24;;;;;;;8.98;5.32;;;;;;;-13.77;40.09;101509.47;4866775;29;20057;-84
2021/01/28 15:52:04;;;;;;;;;;;;;;;-9.87;41.66;102202.56;4859980;29;20045;-84
2021/01/28 15:54:59;;;;;;;8.88;4.90;;;;;;;-11.77;42.21;101850.94;4887223;29;19914;-84
2021/01/28 15:57:49;;;;;;;11.13;4.00;;;;;;;-11.73;42.50;101859.66;4901463;29;20017;-84
2021/01/28 16:00:28;;;;;;;16.67;6.43;;;;;;;-11.91;43.54;101877.50;4892745;29;20044;-84
2021/01/28 16:02:57;;;;;;;7.38;4.13;;;;;;;-10.52;42.48;102054.13;4902583;29;20024;-83
2021/01/28 16:05:25;;;;;;;10.90;4.07;;;;;;;-12.58;41.98;101729.47;4869156;29;20033;-84
2021/01/28 16:07:54;;;;;;;12.23;5.70;;;;;;;-12.96;40.97;101673.50;4871777;29;20025;-84
2021/01/28 16:10:27;;;;;;;8.27;3.85;;;;;;;-10.84;41.17;102032.59;4876386;29;20402;-84
2021/01/28 16:13:33;;;;;;;12.60;4.07;;;;;;;-11.46;41.71;101959.00;4902554;29;20066;-84
2021/01/28 16:16:19;;;;;;;13.52;6.82;;;;;;;-12.99;41.89;101725.19;4832422;29;20061;-84
2021/01/28 16:18:57;;;;;;;12.75;4.85;;;;;;;-12.62;41.61;101759.88;4881403;29;20029;-83
2021/01/28 16:21:33;;;;;;;14.93;5.25;;;;;;;-11.64;41.74;101926.03;4902442;29;20115;-85
2021/01/28 16:24:14;;;;;;;3.97;2.80;;;;;;;-9.56;41.36;102238.50;4901520;29;20032;-83
2021/01/28 16:26:44;;;;;;;9.38;5.15;;;;;;;-12.44;41.70;101767.97;4886945;29;20037;-84
2021/01/28 16:29:55;;;;;;;16.33;5.18;;;;;;;-9.85;42.82;102230.19;4885406;29;20022;-83
2021/01/28 16:32:31;;;;;;;7.50;4.50;;;;;;;-9.69;43.66;102240.09;4886136;29;20076;-84
2021/01/28 16:35:05;;;;;;;6.28;3.80;;;;;;;-11.44;44.26;101975.81;4900533;29;20021;-84
2021/01/28 16:37:55;;;;;;;12.80;6.70;;;;;;;-10.53;44.47;102172.03;4895968;29;20060;-84
2021/01/28 16:40:52;;;;;;;12.98;5.95;;;;;;;-12.00;44.26;101885.00;4899691;29;20037;-84
2021/01/28 16:43:23;;;;;;;7.25;4.15;;;;;;;-10.83;44.95;102044.16;4901089;29;20031;-85
2021/01/28 16:46:29;;;;;;;11.13;4.82;;;;;;;-12.09;44.97;101917.53;4883388;29;20014;-84
2021/01/28 16:49:35;;;;;;;11.75;5.38;;;;;;;-10.00;45.35;102257.75;4867672;29;20025;-84
2021/01/28 16:52:17;;;;;;;21.65;5.93;;;;;;;-13.40;45.55;101718.16;4886673;29;20041;-84
2021/01/28 16:54:50;;;;;;;7.53;3.58;;;;;;;-11.25;45.32;101980.22;4889885;29;20125;-85
2021/01/28 16:57:44;;;;;;;13.50;5.43;;;;;;;-11.98;46.17;101949.91;4889159;29;20029;-84
2021/01/28 17:00:30;;;;;;;11.27;4.82;;;;;;;-9.65;45.89;102271.13;4905073;29;20047;-84
2021/01/28 17:03:19;;;;;;;15.23;6.20;;;;;;;-12.82;45.27;101740.38;4889358;29;20064;-84
2021/01/28 17:06:29;;;;;;;16.33;4.75;;;;;;;-11.22;46.16;102024.69;4886249;29;20029;-84
2021/01/28 17:09:33;;;;;;;15.27;4.63;;;;;;;-10.18;46.27;102222.91;4885022;29;20072;-84
2021/01/28 17:12:48;;;;;;;13.35;5.93;;;;;;;-11.23;46.37;102088.00;4879743;29;20027;-84
2021/01/28 17:15:44;;;;;;;10.50;6.38;;;;;;;-13.30;45.57;101782.56;4891039;29;20057;-83
2021/01/28 17:18:20;;;;;;;17.67;6.05;;;;;;;-9.83;45.86;102281.00;4884521;29;20112;-83
2021/01/28 17:21:04;;;;;;;9.43;4.18;;;;;;;-12.68;45.98;101850.88;4899126;29;20041;-83
2021/01/28 17:23:53;;;;;;;13.15;4.95;;;;;;;-11.86;45.02;101963.59;4849991;29;20065;-83
2021/01/28 17:26:52;;;;;;;6.68;4.70;;;;;;;-10.71;44.57;102161.28;4878378;29;20097;-83
2021/01/28 17:29:31;;;;;;;11.93;5.32;;;;;;;-12.95;45.75;101857.41;4865943;29;20033;-83
2021/01/28 17:32:31;;;;;;;10.65;4.47;;;;;;;-10.02;46.63;102332.88;4891348;29;20023;-83
2021/01/28 17:35:05;;;;;;;11.00;5.63;;;;;;;-12.08;46.47;101980.69;4887753;29;20049;-84
2021/01/28 17:38:00;;;;;;;7.95;4.93;;;;;;;-9.84;44.10;102312.31;4902718;29;20104;-84
2021/01/28 17:41:21;;;;;;;7.00;3.72;;;;;;;-9.86;44.35;102297.25;4881719;29;20112;-82
2021/01/28 17:44:05;;;;;;;7.45;4.47;;;;;;;-10.10;44.47;102313.63;4898094;29;20020;-84
2021/01/28 17:46:54;;;;;;;10.05;6.18;;;;;;;-11.83;43.38;102038.28;4889104;29;20142;-85
2021/01/28 17:49:59;;;;;;;14.55;4.85;;;;;;;-10.20;43.97;102305.16;4902766;29;20068;-85
2021/01/28 17:52:34;;;;;;;22.45;4.75;;;;;;;-11.83;42.52;102065.00;4904373;29;20108;-84
2021/01/28 17:55:03;;;;;;;12.15;4.68;;;;;;;-10.83;42.40;102176.13;4884915;29;20073;-84
2021/01/28 17:57:55;;;;;;;16.35;5.50;;;;;;;-11.91;42.86;101982.53;4888829;29;20037;-85
2021/01/28 18:00:39;;;;;;;30.30;4.40;;;;;;;-13.68;42.35;101755.88;4888512;29;20024;-83
2021/01/28 18:03:21;;;;;;;17.45;4.88;;;;;;;-10.17;43.20;102363.97;4872224;29;20022;-84
2021/01/28 18:06:40;;;;;;;8.65;4.32;;;;;;;-12.62;43.33;101917.28;4873454;29;20073;-84
2021/01/28 18:09:13;;;;;;;9.77;4.32;;;;;;;-9.72;42.95;102309.94;4887737;29;20029;-84
2021/01/28 18:12:08;;;;;;;9.00;3.53;;;;;;;-9.74;41.63;102320.75;4896099;29;20033;-84
2021/01/28 18:14:39;;;;;;;14.18;5.45;;;;;;;-12.05;42.48;101969.88;4904781;29;20041;-83
2021/01/28 18:17:32;;;;;;;10.00;5.65;;;;;;;-13.19;43.08;101806.09;4888004;29;20055;-83
2021/01/28 18:20:25;;;;;;;10.10;4.45;;;;;;;-9.86;42.01;102330.28;4900192;29;20016;-83
2021/01/28 18:23:40;;;;;;;9.02;5.07;;;;;;;-11.62;42.47;102056.88;4901619;29;20025;-84
2021/01/28 18:26:30;;;;;;;17.95;5.20;;;;;;;-12.41;43.04;101931.47;4893338;29;20017;-83
2021/01/28 18:29:06;;;;;;;;;;;;;;;-10.21;41.51;102290.03;4902952;29;20033;-83
2021/01/28 18:31:35;;;;;;;13.85;4.95;;;;;;;-11.08;42.57;102205.88;4869171;29;19932;-83
2021/01/28 18:34:17;;;;;;;10.25;4.15;;;;;;;-9.82;42.28;102293.47;4886435;29;20035;-85
2021/01/28 18:37:17;;;;;;;19.77;5.50;;;;;;;-12.58;41.79;101816.63;4902644;29;20044;-83
2021/01/28 18:40:15;;;;;;;10.05;3.30;;;;;;;-9.65;41.93;102290.78;4885589;29;20045;-83
2021/01/28 18:42:48;;;;;;;9.27;5.22;;;;;;;-9.57;41.50;102282.34;4854526;29;20057;-82
2021/01/28 18:45:39;;;;;;;18.10;4.05;;;;;;;-9.69;42.35;102283.84;4882556;29;20026;-85
2021/01/28 18:48:32;;;;;;;7.20;3.33;;;;;;;-10.31;42.29;102179.81;4897123;29;20021;-84
2021/01/28 18:51:17;;;;;;;9.65;3.80;;;;;;;-9.76;41.70;102295.81;4896451;29;20080;-83
2021/01/28 18:54:07;;;;;;;14.40;5.60;;;;;;;-10.14;42.77;102232.53;4885684;29;20056;-84
2021/01/28 18:57:07;;;;;;;11.80;4.10;;;;;;;-9.52;42.28;102344.66;4903806;29;20033;-84
2021/01/28 18:59:42;;;;;;;5.70;2.75;;;;;;;-9.85;42.62;102273.06;4866484;29;20030;-83
2021/01/28 19:02:16;;;;;;;8.93;3.72;;;;;;;-9.87;43.05;102280.28;4888723;29;20022;-83
2021/01/28 19:05:07;;;;;;;6.95;3.60;;;;;;;-11.20;42.83;102090.53;4912102;29;20031;-84
2021/01/28 19:11:23;;;;;;;8.87;4.57;;;;;;;-12.94;42.39;101757.84;4884981;29;20052;-84
2021/01/28 19:14:28;;;;;;;15.52;4.93;;;;;;;-9.65;41.49;102225.56;4849016;29;20033;-83
2021/01/28 19:17:22;;;;;;;21.38;6.18;;;;;;;-9.41;41.12;102294.94;4891021;29;20081;-83
2021/01/28 19:20:36;;;;;;;12.40;4.55;;;;;;;-11.78;41.96;101973.94;4886931;29;20120;-84
2021/01/28 19:23:28;;;;;;;9.15;4.05;;;;;;;-9.64;41.70;102281.78;4880039;29;20136;-83
2021/01/28 19:26:04;;;;;;;7.57;3.92;;;;;;;-13.22;41.29;101688.94;4886850;29;20037;-84
2021/01/28 19:29:03;;;;;;;19.02;5.57;;;;;;;-9.48;42.16;102297.09;4887653;29;20041;-83
2021/01/28 19:31:50;;;;;;;15.70;5.50;;;;;;;-9.59;41.77;102273.50;4878607;29;20048;-83
2021/01/28 19:34:37;;;;;;;14.38;5.30;;;;;;;-13.23;41.08;101736.06;4898468;29;20044;-83
2021/01/28 19:37:09;;;;;;;11.13;5.30;;;;;;;-13.73;41.16;101683.31;4887342;29;20037;-83
2021/01/28 19:40:11;;;;;;;8.20;2.58;;;;;;;-12.97;40.39;101760.63;4896789;29;20048;-83
2021/01/28 19:43:03;;;;;;;4.53;2.22;;;;;;;-9.88;40.51;102293.78;4899185;29;20040;-83
2021/01/28 19:45:38;;;;;;;9.07;4.00;;;;;;;-13.01;40.62;101764.38;4900080;29;20046;-83
2021/01/28 19:48:45;;;;;;;9.18;3.10;;;;;;;-9.40;40.93;102283.28;4874120;29;20051;-84
2021/01/28 19:51:18;;;;;;;18.40;5.63;;;;;;;-9.73;41.42;102278.72;4881064;29;20151;-84
2021/01/28 19:54:11;;;;;;;8.70;3.25;;;;;;;-9.66;41.00;102270.28;4882536;29;20053;-82
2021/01/28 19:56:41;;;;;;;8.27;3.70;;;;;;;-10.11;41.91;102250.28;4860780;29;20071;-83
2021/01/28 19:59:21;;;;;;;4.65;2.30;;;;;;;-9.81;42.37;102274.63;4852809;29;20463;-83
2021/01/28 20:02:27;;;;;;;10.15;4.70;;;;;;;-9.81;42.79;102282.66;4878335;29;20061;-84
2021/01/28 20:05:45;;;;;;;7.22;2.50;;;;;;;-9.71;40.74;102268.81;4881495;29;20061;-85
2021/01/28 20:08:32;;;;;;;9.20;4.03;;;;;;;-11.24;40.36;102067.53;4880688;29;20029;-84
2021/01/28 20:11:24;;;;;;;9.95;4.32;;;;;;;-9.68;39.94;102331.19;4853434;29;20042;-84
2021/01/28 20:13:59;;;;;;;12.48;3.10;;;;;;;-12.68;39.47;101848.22;4865730;29;20049;-84
2021/01/28 20:16:34;;;;;;;3.90;2.17;;;;;;;-11.56;40.26;101981.75;4891405;29;20049;-82
2021/01/28 20:19:11;;;;;;;10.73;3.65;;;;;;;-11.84;39.61;101951.06;4898093;29;20044;-84
2021/01/28 20:22:09;;;;;;;13.52;3.40;;;;;;;-9.85;37.98;102291.81;4899355;29;20029;-83
2021/01/28 20:24:47;;;;;;;5.82;3.10;;;;;;;-9.98;38.16;102325.53;4883898;29;20052;-84
2021/01/28 20:27:20;;;;;;;9.10;3.03;;;;;;;-11.61;38.49;101975.78;4901465;29;20045;-83
2021/01/28 20:30:10;;;;;;;3.13;1.50;;;;;;;-12.84;37.32;101819.56;4904069;29;20105;-83
2021/01/28 20:32:37;;;;;;;6.80;2.92;;;;;;;-12.18;38.40;101920.66;4887353;29;20132;-83
2021/01/28 20:35:11;;;;;;;4.07;2.22;;;;;;;-13.44;37.89;101737.03;4901045;29;20017;-83
2021/01/28 20:38:06;;;;;;;5.53;3.15;;;;;;;-12.00;37.06;101959.78;4885196;29;20021;-83
2021/01/28 20:40:39;;;;;;;13.07;3.03;;;;;;;-9.86;38.98;102319.56;4884293;29;20041;-83
2021/01/28 20:43:15;;;;;;;11.50;3.17;;;;;;;-13.19;39.39;101800.75;4869471;29;20037;-83
2021/01/28 20:46:02;;;;;;;12.30;4.03;;;;;;;-11.89;38.82;101983.31;4902837;29;20029;-83
2021/01/28 20:48:30;;;;;;;7.45;2.22;;;;;;;-9.67;38.74;102356.16;4884726;29;20086;-83
2021/01/28 20:51:00;;;;;;;6.25;2.42;;;;;;;-10.04;37.85;102329.41;4890359;29;20025;-83
2021/01/28 20:53:48;;;;;;;6.55;2.70;;;;;;;-13.15;38.44;101826.31;4920534;29;20052;-82
2021/01/28 20:56:23;;;;;;;7.38;2.67;;;;;;;-11.76;38.56;101999.66;4902289;29;20025;-83
2021/01/28 20:58:59;;;;;;;5.80;2.55;;;;;;;-9.91;38.82;102348.41;4887437;29;20100;-83
2021/01/28 21:01:39;;;;;;;6.18;2.33;;;;;;;-13.11;37.81;101846.59;4871455;29;20025;-84
2021/01/28 21:04:15;;;;;;;;;;;;;;;-10.09;39.08;102323.38;4888498;29;20048;-84
2021/01/28 21:06:49;;;;;;;21.23;4.15;;;;;;;-12.29;39.36;101982.53;4887803;29;19912;-83
2021/01/28 21:09:38;;;;;;;8.90;3.70;;;;;;;-9.98;39.76;102331.78;4887315;29;20047;-83
2021/01/28 21:12:12;;;;;;;6.47;3.05;;;;;;;-12.15;39.30;101971.22;4865261;29;20161;-83
2021/01/28 21:14:40;;;;;;;9.38;4.68;;;;;;;-13.23;39.22;101863.13;4859693;29;20131;-83
2021/01/28 21:17:09;;;;;;;6.28;2.85;;;;;;;-10.71;39.44;102289.75;4864430;29;20060;-83
2021/01/28 21:19:42;;;;;;;8.88;4.18;;;;;;;-10.87;40.26;102245.00;4846065;29;20106;-83
2021/01/28 21:22:11;;;;;;;6.13;2.38;;;;;;;-9.90;39.36;102356.38;4859349;29;20110;-83
2021/01/28 21:25:30;;;;;;;9.93;4.40;;;;;;;-12.83;39.36;101860.47;4847364;29;20033;-82
2021/01/28 21:28:17;;;;;;;7.15;2.90;;;;;;;-10.24;39.19;102232.13;4852488;29;20062;-82
2021/01/28 21:30:49;;;;;;;8.20;4.35;;;;;;;-11.37;38.33;102130.59;4865140;29;20034;-83
2021/01/28 21:33:19;;;;;;;5.37;3.43;;;;;;;-9.93;38.58;102369.06;4843408;29;20125;-82
2021/01/28 21:35:55;;;;;;;8.70;3.17;;;;;;;-13.22;38.59;101806.19;4861982;29;20290;-83
2021/01/28 21:38:24;;;;;;;18.08;4.10;;;;;;;-11.09;39.57;102150.66;4853053;29;20022;-82
2021/01/28 21:40:53;;;;;;;8.63;3.40;;;;;;;-12.69;38.81;101865.16;4826150;29;20039;-81
2021/01/28 21:43:26;;;;;;;8.27;3.60;;;;;;;-12.21;37.15;101947.50;4815390;29;20065;-82
2021/01/28 21:45:54;;;;;;;11.98;3.95;;;;;;;-13.14;37.97;101829.88;4827137;29;20102;-81
2021/01/28 21:48:24;;;;;;;6.72;3.45;;;;;;;-12.67;38.35;102018.03;4840567;29;20083;-82
2021/01/28 21:50:54;;;;;;;9.90;4.13;;;;;;;-10.12;38.03;102388.72;4884989;29;20029;-81
2021/01/28 21:53:23;;;;;;;8.93;4.18;;;;;;;-11.44;38.51;102192.38;4877033;29;20044;-81
2021/01/28 21:55:52;;;;;;;7.47;3.88;;;;;;;-11.29;38.59;102224.69;4885265;29;20045;-82
2021/01/28 21:58:25;;;;;;;7.80;2.63;;;;;;;-10.38;37.97;102401.53;4869641;29;20093;-81